sensor_id;sensor_type;location;lat;lon;timestamp;P1;durP1;ratioP1;P2;durP2;ratioP2
12792;SDS011;6460;42.684;23.260;2022-07-10T00:01:31;15.80;;;14.30;;
12792;SDS011;6460;42.684;23.260;2022-07-10T00:04:00;14.67;;;13.33;;
12792;SDS011;6460;42.684;23.260;2022-07-10T00:06:27;15.73;;;14.30;;
12792;SDS011;6460;42.684;23.260;2022-07-10T00:08:54;15.50;;;14.00;;
12792;SDS011;6460;42.684;23.260;2022-07-10T00:11:21;15.00;;;13.60;;
12792;SDS011;6460;42.684;23.260;2022-07-10T00:13:48;16.10;;;14.80;;
12792;SDS011;6460;42.684;23.260;2022-07-10T00:16:16;16.10;;;14.60;;
12792;SDS011;6460;42.684;23.260;2022-07-10T00:18:43;15.70;;;14.40;;
12792;SDS011;6460;42.684;23.260;2022-07-10T00:21:11;15.50;;;14.00;;
12792;SDS011;6460;42.684;23.260;2022-07-10T00:23:39;16.50;;;15.10;;
12792;SDS011;6460;42.684;23.260;2022-07-10T00:26:05;16.30;;;14.70;;
12792;SDS011;6460;42.684;23.260;2022-07-10T00:28:33;16.43;;;15.00;;
12792;SDS011;6460;42.684;23.260;2022-07-10T00:31:00;15.40;;;14.10;;
12792;SDS011;6460;42.684;23.260;2022-07-10T00:33:27;15.60;;;14.30;;
12792;SDS011;6460;42.684;23.260;2022-07-10T00:35:56;15.43;;;13.93;;
12792;SDS011;6460;42.684;23.260;2022-07-10T00:38:24;16.33;;;14.83;;
12792;SDS011;6460;42.684;23.260;2022-07-10T00:40:51;15.07;;;13.77;;
12792;SDS011;6460;42.684;23.260;2022-07-10T00:43:19;15.90;;;14.30;;
12792;SDS011;6460;42.684;23.260;2022-07-10T00:45:46;14.90;;;13.43;;
12792;SDS011;6460;42.684;23.260;2022-07-10T00:48:15;15.60;;;14.00;;
12792;SDS011;6460;42.684;23.260;2022-07-10T00:50:42;15.00;;;13.60;;
12792;SDS011;6460;42.684;23.260;2022-07-10T00:53:11;14.47;;;13.17;;
12792;SDS011;6460;42.684;23.260;2022-07-10T00:55:41;16.13;;;13.83;;
12792;SDS011;6460;42.684;23.260;2022-07-10T00:58:09;15.70;;;14.20;;
12792;SDS011;6460;42.684;23.260;2022-07-10T01:00:37;14.87;;;13.23;;
12792;SDS011;6460;42.684;23.260;2022-07-10T01:03:05;14.30;;;12.90;;
12792;SDS011;6460;42.684;23.260;2022-07-10T01:05:33;15.33;;;13.87;;
12792;SDS011;6460;42.684;23.260;2022-07-10T01:08:00;14.90;;;13.50;;
12792;SDS011;6460;42.684;23.260;2022-07-10T01:10:27;14.73;;;13.43;;
12792;SDS011;6460;42.684;23.260;2022-07-10T01:12:56;15.13;;;13.73;;
12792;SDS011;6460;42.684;23.260;2022-07-10T01:15:23;14.57;;;13.20;;
12792;SDS011;6460;42.684;23.260;2022-07-10T01:17:50;15.77;;;14.47;;
12792;SDS011;6460;42.684;23.260;2022-07-10T01:20:18;15.40;;;13.87;;
12792;SDS011;6460;42.684;23.260;2022-07-10T01:22:46;15.13;;;13.73;;
12792;SDS011;6460;42.684;23.260;2022-07-10T01:25:13;15.03;;;13.73;;
12792;SDS011;6460;42.684;23.260;2022-07-10T01:27:40;14.30;;;12.93;;
12792;SDS011;6460;42.684;23.260;2022-07-10T01:30:09;15.07;;;13.57;;
12792;SDS011;6460;42.684;23.260;2022-07-10T01:32:37;14.37;;;12.97;;
12792;SDS011;6460;42.684;23.260;2022-07-10T01:35:05;14.00;;;12.80;;
12792;SDS011;6460;42.684;23.260;2022-07-10T01:37:33;15.23;;;13.77;;
12792;SDS011;6460;42.684;23.260;2022-07-10T01:40:05;16.17;;;14.60;;
12792;SDS011;6460;42.684;23.260;2022-07-10T01:42:34;14.53;;;13.03;;
12792;SDS011;6460;42.684;23.260;2022-07-10T01:45:03;15.00;;;13.60;;
12792;SDS011;6460;42.684;23.260;2022-07-10T01:47:30;14.60;;;13.13;;
12792;SDS011;6460;42.684;23.260;2022-07-10T01:49:57;14.50;;;13.20;;
12792;SDS011;6460;42.684;23.260;2022-07-10T01:52:24;14.20;;;12.90;;
12792;SDS011;6460;42.684;23.260;2022-07-10T01:54:51;14.87;;;13.37;;
12792;SDS011;6460;42.684;23.260;2022-07-10T01:57:20;14.10;;;12.70;;
12792;SDS011;6460;42.684;23.260;2022-07-10T01:59:47;14.37;;;13.03;;
12792;SDS011;6460;42.684;23.260;2022-07-10T02:02:14;14.07;;;12.77;;
12792;SDS011;6460;42.684;23.260;2022-07-10T02:04:41;14.93;;;13.53;;
12792;SDS011;6460;42.684;23.260;2022-07-10T02:07:07;14.23;;;12.93;;
12792;SDS011;6460;42.684;23.260;2022-07-10T02:09:34;14.93;;;13.47;;
12792;SDS011;6460;42.684;23.260;2022-07-10T02:12:02;14.17;;;12.87;;
12792;SDS011;6460;42.684;23.260;2022-07-10T02:14:31;14.83;;;13.53;;
12792;SDS011;6460;42.684;23.260;2022-07-10T02:16:58;15.37;;;13.87;;
12792;SDS011;6460;42.684;23.260;2022-07-10T02:19:25;15.27;;;13.83;;
12792;SDS011;6460;42.684;23.260;2022-07-10T02:21:52;15.03;;;13.47;;
12792;SDS011;6460;42.684;23.260;2022-07-10T02:24:20;14.77;;;13.20;;
12792;SDS011;6460;42.684;23.260;2022-07-10T02:26:47;15.33;;;13.80;;
12792;SDS011;6460;42.684;23.260;2022-07-10T02:29:14;15.77;;;14.07;;
12792;SDS011;6460;42.684;23.260;2022-07-10T02:31:42;13.77;;;12.60;;
12792;SDS011;6460;42.684;23.260;2022-07-10T02:34:10;14.47;;;13.10;;
12792;SDS011;6460;42.684;23.260;2022-07-10T02:36:38;13.73;;;12.53;;
12792;SDS011;6460;42.684;23.260;2022-07-10T02:39:06;13.47;;;12.07;;
12792;SDS011;6460;42.684;23.260;2022-07-10T02:41:34;12.50;;;11.40;;
12792;SDS011;6460;42.684;23.260;2022-07-10T02:44:01;12.97;;;11.77;;
12792;SDS011;6460;42.684;23.260;2022-07-10T02:46:29;12.70;;;11.53;;
12792;SDS011;6460;42.684;23.260;2022-07-10T02:48:57;13.40;;;12.20;;
12792;SDS011;6460;42.684;23.260;2022-07-10T02:51:24;13.93;;;12.60;;
12792;SDS011;6460;42.684;23.260;2022-07-10T02:53:52;12.63;;;10.90;;
12792;SDS011;6460;42.684;23.260;2022-07-10T02:56:19;13.63;;;12.40;;
12792;SDS011;6460;42.684;23.260;2022-07-10T02:58:46;12.97;;;11.77;;
12792;SDS011;6460;42.684;23.260;2022-07-10T03:01:13;12.67;;;11.37;;
12792;SDS011;6460;42.684;23.260;2022-07-10T03:03:40;14.03;;;12.63;;
12792;SDS011;6460;42.684;23.260;2022-07-10T03:06:09;15.77;;;13.37;;
12792;SDS011;6460;42.684;23.260;2022-07-10T03:08:36;14.10;;;12.63;;
12792;SDS011;6460;42.684;23.260;2022-07-10T03:11:03;13.50;;;12.20;;
12792;SDS011;6460;42.684;23.260;2022-07-10T03:13:31;13.20;;;11.97;;
12792;SDS011;6460;42.684;23.260;2022-07-10T03:15:58;14.17;;;12.87;;
12792;SDS011;6460;42.684;23.260;2022-07-10T03:18:25;14.63;;;13.43;;
12792;SDS011;6460;42.684;23.260;2022-07-10T03:20:52;12.73;;;11.63;;
12792;SDS011;6460;42.684;23.260;2022-07-10T03:23:20;14.00;;;12.60;;
12792;SDS011;6460;42.684;23.260;2022-07-10T03:25:47;14.37;;;13.07;;
12792;SDS011;6460;42.684;23.260;2022-07-10T03:28:15;15.40;;;13.90;;
12792;SDS011;6460;42.684;23.260;2022-07-10T03:30:42;14.77;;;13.37;;
12792;SDS011;6460;42.684;23.260;2022-07-10T03:33:18;14.37;;;13.07;;
12792;SDS011;6460;42.684;23.260;2022-07-10T03:35:45;14.43;;;13.13;;
12792;SDS011;6460;42.684;23.260;2022-07-10T03:38:21;13.83;;;12.53;;
12792;SDS011;6460;42.684;23.260;2022-07-10T03:40:48;14.40;;;13.00;;
12792;SDS011;6460;42.684;23.260;2022-07-10T03:43:15;15.20;;;13.80;;
12792;SDS011;6460;42.684;23.260;2022-07-10T03:45:42;14.30;;;13.00;;
12792;SDS011;6460;42.684;23.260;2022-07-10T03:48:09;14.20;;;12.90;;
12792;SDS011;6460;42.684;23.260;2022-07-10T03:50:36;14.57;;;12.47;;
12792;SDS011;6460;42.684;23.260;2022-07-10T03:53:03;13.80;;;12.60;;
12792;SDS011;6460;42.684;23.260;2022-07-10T03:55:31;13.80;;;12.47;;
12792;SDS011;6460;42.684;23.260;2022-07-10T03:57:58;13.33;;;12.03;;
12792;SDS011;6460;42.684;23.260;2022-07-10T04:00:27;14.13;;;12.73;;
12792;SDS011;6460;42.684;23.260;2022-07-10T04:02:57;13.77;;;12.57;;
12792;SDS011;6460;42.684;23.260;2022-07-10T04:05:25;13.67;;;12.37;;
12792;SDS011;6460;42.684;23.260;2022-07-10T04:07:52;13.50;;;12.10;;
12792;SDS011;6460;42.684;23.260;2022-07-10T04:10:22;13.77;;;12.40;;
12792;SDS011;6460;42.684;23.260;2022-07-10T04:12:50;14.00;;;12.67;;
12792;SDS011;6460;42.684;23.260;2022-07-10T04:15:20;13.83;;;12.63;;
12792;SDS011;6460;42.684;23.260;2022-07-10T04:17:48;13.63;;;12.33;;
12792;SDS011;6460;42.684;23.260;2022-07-10T04:20:15;12.67;;;11.47;;
12792;SDS011;6460;42.684;23.260;2022-07-10T04:22:42;13.03;;;11.77;;
12792;SDS011;6460;42.684;23.260;2022-07-10T04:25:10;12.23;;;11.20;;
12792;SDS011;6460;42.684;23.260;2022-07-10T04:27:38;12.17;;;10.90;;
12792;SDS011;6460;42.684;23.260;2022-07-10T04:30:07;11.37;;;10.47;;
12792;SDS011;6460;42.684;23.260;2022-07-10T04:32:35;11.53;;;10.40;;
12792;SDS011;6460;42.684;23.260;2022-07-10T04:35:02;10.20;;;9.23;;
12792;SDS011;6460;42.684;23.260;2022-07-10T04:37:29;13.57;;;10.33;;
12792;SDS011;6460;42.684;23.260;2022-07-10T04:39:56;11.57;;;10.47;;
12792;SDS011;6460;42.684;23.260;2022-07-10T04:42:24;11.57;;;10.47;;
12792;SDS011;6460;42.684;23.260;2022-07-10T04:44:51;11.73;;;10.50;;
12792;SDS011;6460;42.684;23.260;2022-07-10T04:47:19;11.43;;;10.33;;
12792;SDS011;6460;42.684;23.260;2022-07-10T04:49:46;11.27;;;10.27;;
12792;SDS011;6460;42.684;23.260;2022-07-10T04:55:05;10.53;;;9.43;;
12792;SDS011;6460;42.684;23.260;2022-07-10T04:57:33;11.63;;;10.43;;
12792;SDS011;6460;42.684;23.260;2022-07-10T05:00:00;11.10;;;10.10;;
12792;SDS011;6460;42.684;23.260;2022-07-10T05:02:29;11.53;;;10.53;;
12792;SDS011;6460;42.684;23.260;2022-07-10T05:04:56;12.10;;;10.90;;
12792;SDS011;6460;42.684;23.260;2022-07-10T05:07:24;12.10;;;11.10;;
12792;SDS011;6460;42.684;23.260;2022-07-10T05:09:51;10.60;;;9.57;;
12792;SDS011;6460;42.684;23.260;2022-07-10T05:12:18;11.93;;;10.57;;
12792;SDS011;6460;42.684;23.260;2022-07-10T05:14:45;11.03;;;9.90;;
12792;SDS011;6460;42.684;23.260;2022-07-10T05:17:12;10.30;;;9.47;;
12792;SDS011;6460;42.684;23.260;2022-07-10T05:19:41;11.27;;;10.17;;
12792;SDS011;6460;42.684;23.260;2022-07-10T05:24:57;10.93;;;9.80;;
12792;SDS011;6460;42.684;23.260;2022-07-10T05:27:24;9.70;;;8.70;;
12792;SDS011;6460;42.684;23.260;2022-07-10T05:32:50;9.60;;;8.53;;
12792;SDS011;6460;42.684;23.260;2022-07-10T05:35:18;9.33;;;8.43;;
12792;SDS011;6460;42.684;23.260;2022-07-10T05:40:55;9.73;;;8.83;;
12792;SDS011;6460;42.684;23.260;2022-07-10T05:49:54;8.77;;;7.40;;
12792;SDS011;6460;42.684;23.260;2022-07-10T05:55:23;9.97;;;9.03;;
12792;SDS011;6460;42.684;23.260;2022-07-10T05:57:51;9.20;;;8.50;;
12792;SDS011;6460;42.684;23.260;2022-07-10T06:00:19;10.50;;;8.40;;
12792;SDS011;6460;42.684;23.260;2022-07-10T06:02:47;9.27;;;8.37;;
12792;SDS011;6460;42.684;23.260;2022-07-10T06:05:14;8.20;;;7.50;;
12792;SDS011;6460;42.684;23.260;2022-07-10T06:07:41;8.23;;;7.43;;
12792;SDS011;6460;42.684;23.260;2022-07-10T06:10:09;8.03;;;7.27;;
12792;SDS011;6460;42.684;23.260;2022-07-10T06:12:49;8.03;;;7.23;;
12792;SDS011;6460;42.684;23.260;2022-07-10T06:15:16;7.83;;;7.03;;
12792;SDS011;6460;42.684;23.260;2022-07-10T06:17:45;7.87;;;6.90;;
12792;SDS011;6460;42.684;23.260;2022-07-10T06:20:12;8.67;;;7.03;;
12792;SDS011;6460;42.684;23.260;2022-07-10T06:22:39;7.83;;;7.07;;
12792;SDS011;6460;42.684;23.260;2022-07-10T06:25:07;7.13;;;6.43;;
12792;SDS011;6460;42.684;23.260;2022-07-10T06:27:39;8.17;;;7.37;;
12792;SDS011;6460;42.684;23.260;2022-07-10T06:30:06;7.70;;;7.00;;
12792;SDS011;6460;42.684;23.260;2022-07-10T06:32:34;7.23;;;6.63;;
12792;SDS011;6460;42.684;23.260;2022-07-10T06:35:01;7.87;;;6.67;;
12792;SDS011;6460;42.684;23.260;2022-07-10T06:37:29;6.60;;;6.00;;
12792;SDS011;6460;42.684;23.260;2022-07-10T06:47:28;8.50;;;5.90;;
12792;SDS011;6460;42.684;23.260;2022-07-10T07:14:14;6.97;;;6.30;;
12792;SDS011;6460;42.684;23.260;2022-07-10T07:30:07;7.73;;;4.87;;
12792;SDS011;6460;42.684;23.260;2022-07-10T07:32:35;5.83;;;5.17;;
12792;SDS011;6460;42.684;23.260;2022-07-10T07:35:03;10.30;;;5.10;;
12792;SDS011;6460;42.684;23.260;2022-07-10T08:15:59;3.80;;;3.60;;
12792;SDS011;6460;42.684;23.260;2022-07-10T08:18:25;5.10;;;3.63;;
12792;SDS011;6460;42.684;23.260;2022-07-10T08:20:53;6.63;;;3.70;;
12792;SDS011;6460;42.684;23.260;2022-07-10T08:23:30;4.80;;;3.87;;
12792;SDS011;6460;42.684;23.260;2022-07-10T08:25:57;4.00;;;3.70;;
12792;SDS011;6460;42.684;23.260;2022-07-10T08:31:13;4.10;;;3.47;;
12792;SDS011;6460;42.684;23.260;2022-07-10T08:33:48;4.00;;;3.63;;
12792;SDS011;6460;42.684;23.260;2022-07-10T08:36:16;5.43;;;3.97;;
12792;SDS011;6460;42.684;23.260;2022-07-10T08:38:44;4.53;;;4.13;;
12792;SDS011;6460;42.684;23.260;2022-07-10T08:43:50;6.00;;;3.70;;
12792;SDS011;6460;42.684;23.260;2022-07-10T08:46:17;5.50;;;3.80;;
12792;SDS011;6460;42.684;23.260;2022-07-10T08:48:45;5.77;;;3.70;;
12792;SDS011;6460;42.684;23.260;2022-07-10T08:51:15;4.90;;;4.50;;
12792;SDS011;6460;42.684;23.260;2022-07-10T08:53:52;5.43;;;4.93;;
12792;SDS011;6460;42.684;23.260;2022-07-10T08:56:22;4.57;;;4.17;;
12792;SDS011;6460;42.684;23.260;2022-07-10T08:58:49;4.70;;;4.07;;
12792;SDS011;6460;42.684;23.260;2022-07-10T09:01:18;4.70;;;3.50;;
12792;SDS011;6460;42.684;23.260;2022-07-10T09:03:48;4.30;;;3.90;;
12792;SDS011;6460;42.684;23.260;2022-07-10T09:06:15;4.90;;;4.43;;
12792;SDS011;6460;42.684;23.260;2022-07-10T09:11:27;4.07;;;3.70;;
12792;SDS011;6460;42.684;23.260;2022-07-10T09:13:56;4.40;;;3.90;;
12792;SDS011;6460;42.684;23.260;2022-07-10T09:16:24;4.27;;;3.87;;
12792;SDS011;6460;42.684;23.260;2022-07-10T09:18:52;5.10;;;3.77;;
12792;SDS011;6460;42.684;23.260;2022-07-10T09:21:19;3.60;;;3.33;;
12792;SDS011;6460;42.684;23.260;2022-07-10T09:23:47;5.80;;;3.90;;
12792;SDS011;6460;42.684;23.260;2022-07-10T09:26:15;6.67;;;3.80;;
12792;SDS011;6460;42.684;23.260;2022-07-10T09:28:43;4.20;;;3.63;;
12792;SDS011;6460;42.684;23.260;2022-07-10T09:31:10;4.57;;;3.50;;
12792;SDS011;6460;42.684;23.260;2022-07-10T09:33:39;6.10;;;3.93;;
12792;SDS011;6460;42.684;23.260;2022-07-10T09:36:06;4.20;;;3.80;;
12792;SDS011;6460;42.684;23.260;2022-07-10T09:38:51;4.33;;;3.60;;
12792;SDS011;6460;42.684;23.260;2022-07-10T09:41:22;4.53;;;3.27;;
12792;SDS011;6460;42.684;23.260;2022-07-10T09:43:51;4.13;;;3.43;;
12792;SDS011;6460;42.684;23.260;2022-07-10T09:46:21;3.83;;;3.27;;
12792;SDS011;6460;42.684;23.260;2022-07-10T09:48:57;3.60;;;3.33;;
12792;SDS011;6460;42.684;23.260;2022-07-10T09:51:28;4.33;;;3.27;;
12792;SDS011;6460;42.684;23.260;2022-07-10T09:53:58;4.87;;;3.87;;
12792;SDS011;6460;42.684;23.260;2022-07-10T09:56:29;3.40;;;3.10;;
12792;SDS011;6460;42.684;23.260;2022-07-10T09:59:00;3.67;;;3.37;;
12792;SDS011;6460;42.684;23.260;2022-07-10T10:01:32;3.60;;;3.30;;
12792;SDS011;6460;42.684;23.260;2022-07-10T10:04:01;3.87;;;3.30;;
12792;SDS011;6460;42.684;23.260;2022-07-10T10:06:30;4.53;;;3.10;;
12792;SDS011;6460;42.684;23.260;2022-07-10T10:09:03;4.20;;;3.10;;
12792;SDS011;6460;42.684;23.260;2022-07-10T10:11:33;4.53;;;3.33;;
12792;SDS011;6460;42.684;23.260;2022-07-10T10:14:03;3.57;;;3.27;;
12792;SDS011;6460;42.684;23.260;2022-07-10T10:16:33;3.73;;;3.20;;
12792;SDS011;6460;42.684;23.260;2022-07-10T10:19:00;4.00;;;2.87;;
12792;SDS011;6460;42.684;23.260;2022-07-10T10:21:46;7.47;;;3.23;;
12792;SDS011;6460;42.684;23.260;2022-07-10T10:24:13;3.50;;;3.20;;
12792;SDS011;6460;42.684;23.260;2022-07-10T10:26:42;3.60;;;3.10;;
12792;SDS011;6460;42.684;23.260;2022-07-10T10:29:10;4.07;;;3.40;;
12792;SDS011;6460;42.684;23.260;2022-07-10T10:31:38;5.90;;;3.20;;
12792;SDS011;6460;42.684;23.260;2022-07-10T10:34:06;3.47;;;2.97;;
12792;SDS011;6460;42.684;23.260;2022-07-10T10:36:43;3.70;;;3.00;;
12792;SDS011;6460;42.684;23.260;2022-07-10T10:39:11;3.20;;;3.00;;
12792;SDS011;6460;42.684;23.260;2022-07-10T10:41:44;3.30;;;3.00;;
12792;SDS011;6460;42.684;23.260;2022-07-10T10:47:02;3.83;;;3.30;;
12792;SDS011;6460;42.684;23.260;2022-07-10T10:49:50;4.67;;;3.40;;
12792;SDS011;6460;42.684;23.260;2022-07-10T10:52:24;5.70;;;2.90;;
12792;SDS011;6460;42.684;23.260;2022-07-10T10:55:04;4.07;;;3.13;;
12792;SDS011;6460;42.684;23.260;2022-07-10T10:57:39;3.63;;;2.80;;
12792;SDS011;6460;42.684;23.260;2022-07-10T11:03:19;5.33;;;3.30;;
12792;SDS011;6460;42.684;23.260;2022-07-10T11:05:49;3.57;;;2.90;;
12792;SDS011;6460;42.684;23.260;2022-07-10T11:14:06;3.43;;;3.13;;
12792;SDS011;6460;42.684;23.260;2022-07-10T11:16:34;3.20;;;2.90;;
12792;SDS011;6460;42.684;23.260;2022-07-10T11:19:01;6.33;;;3.27;;
12792;SDS011;6460;42.684;23.260;2022-07-10T11:21:30;3.67;;;3.20;;
12792;SDS011;6460;42.684;23.260;2022-07-10T11:24:13;3.43;;;3.13;;
12792;SDS011;6460;42.684;23.260;2022-07-10T11:26:58;5.97;;;3.53;;
12792;SDS011;6460;42.684;23.260;2022-07-10T11:29:37;3.70;;;3.40;;
12792;SDS011;6460;42.684;23.260;2022-07-10T11:32:04;3.23;;;2.93;;
12792;SDS011;6460;42.684;23.260;2022-07-10T11:34:36;4.97;;;3.23;;
12792;SDS011;6460;42.684;23.260;2022-07-10T11:37:03;4.47;;;2.80;;
12792;SDS011;6460;42.684;23.260;2022-07-10T11:39:39;3.57;;;3.20;;
12792;SDS011;6460;42.684;23.260;2022-07-10T11:42:06;3.60;;;2.90;;
12792;SDS011;6460;42.684;23.260;2022-07-10T11:44:33;3.20;;;3.00;;
12792;SDS011;6460;42.684;23.260;2022-07-10T11:47:01;4.17;;;3.03;;
12792;SDS011;6460;42.684;23.260;2022-07-10T11:49:29;8.03;;;3.13;;
12792;SDS011;6460;42.684;23.260;2022-07-10T11:52:00;2.90;;;2.70;;
12792;SDS011;6460;42.684;23.260;2022-07-10T11:54:28;3.23;;;2.80;;
12792;SDS011;6460;42.684;23.260;2022-07-10T11:56:55;3.07;;;2.60;;
12792;SDS011;6460;42.684;23.260;2022-07-10T11:59:23;2.50;;;2.30;;
12792;SDS011;6460;42.684;23.260;2022-07-10T12:01:52;7.50;;;2.80;;
12792;SDS011;6460;42.684;23.260;2022-07-10T12:04:22;2.90;;;2.60;;
12792;SDS011;6460;42.684;23.260;2022-07-10T12:06:51;3.07;;;2.77;;
12792;SDS011;6460;42.684;23.260;2022-07-10T12:09:19;7.53;;;2.93;;
12792;SDS011;6460;42.684;23.260;2022-07-10T12:11:57;3.37;;;2.80;;
12792;SDS011;6460;42.684;23.260;2022-07-10T12:14:25;2.60;;;2.40;;
12792;SDS011;6460;42.684;23.260;2022-07-10T12:16:53;2.90;;;2.60;;
12792;SDS011;6460;42.684;23.260;2022-07-10T12:19:23;3.33;;;2.87;;
12792;SDS011;6460;42.684;23.260;2022-07-10T12:21:52;2.73;;;2.53;;
12792;SDS011;6460;42.684;23.260;2022-07-10T12:24:20;2.83;;;2.60;;
12792;SDS011;6460;42.684;23.260;2022-07-10T12:26:49;3.20;;;2.90;;
12792;SDS011;6460;42.684;23.260;2022-07-10T12:29:20;3.10;;;2.80;;
12792;SDS011;6460;42.684;23.260;2022-07-10T12:31:49;9.40;;;2.93;;
12792;SDS011;6460;42.684;23.260;2022-07-10T12:34:19;19.33;;;3.63;;
12792;SDS011;6460;42.684;23.260;2022-07-10T12:37:05;4.63;;;2.70;;
12792;SDS011;6460;42.684;23.260;2022-07-10T12:39:35;4.37;;;2.57;;
12792;SDS011;6460;42.684;23.260;2022-07-10T12:42:06;3.57;;;2.40;;
12792;SDS011;6460;42.684;23.260;2022-07-10T12:44:34;2.57;;;2.00;;
12792;SDS011;6460;42.684;23.260;2022-07-10T12:47:06;2.93;;;2.10;;
12792;SDS011;6460;42.684;23.260;2022-07-10T12:49:47;2.13;;;1.93;;
12792;SDS011;6460;42.684;23.260;2022-07-10T12:52:20;2.37;;;2.03;;
12792;SDS011;6460;42.684;23.260;2022-07-10T12:55:05;2.07;;;1.87;;
12792;SDS011;6460;42.684;23.260;2022-07-10T12:57:49;5.80;;;2.83;;
12792;SDS011;6460;42.684;23.260;2022-07-10T13:00:17;3.13;;;1.90;;
12792;SDS011;6460;42.684;23.260;2022-07-10T13:02:46;2.37;;;1.90;;
12792;SDS011;6460;42.684;23.260;2022-07-10T13:05:25;1.70;;;1.60;;
12792;SDS011;6460;42.684;23.260;2022-07-10T13:08:04;2.33;;;1.40;;
12792;SDS011;6460;42.684;23.260;2022-07-10T13:10:37;2.20;;;2.00;;
12792;SDS011;6460;42.684;23.260;2022-07-10T13:13:05;2.50;;;1.63;;
12792;SDS011;6460;42.684;23.260;2022-07-10T13:15:32;1.70;;;1.60;;
12792;SDS011;6460;42.684;23.260;2022-07-10T13:18:04;2.10;;;1.73;;
12792;SDS011;6460;42.684;23.260;2022-07-10T13:20:32;2.63;;;1.90;;
12792;SDS011;6460;42.684;23.260;2022-07-10T13:22:59;3.87;;;2.10;;
12792;SDS011;6460;42.684;23.260;2022-07-10T13:25:27;2.27;;;1.70;;
12792;SDS011;6460;42.684;23.260;2022-07-10T13:27:54;2.97;;;1.60;;
12792;SDS011;6460;42.684;23.260;2022-07-10T13:30:21;1.77;;;1.67;;
12792;SDS011;6460;42.684;23.260;2022-07-10T13:32:48;1.97;;;1.73;;
12792;SDS011;6460;42.684;23.260;2022-07-10T13:35:15;1.97;;;1.80;;
12792;SDS011;6460;42.684;23.260;2022-07-10T13:37:42;1.80;;;1.53;;
12792;SDS011;6460;42.684;23.260;2022-07-10T13:40:09;1.80;;;1.70;;
12792;SDS011;6460;42.684;23.260;2022-07-10T13:42:38;2.63;;;2.07;;
12792;SDS011;6460;42.684;23.260;2022-07-10T13:45:06;2.57;;;1.60;;
12792;SDS011;6460;42.684;23.260;2022-07-10T13:47:34;3.60;;;1.80;;
12792;SDS011;6460;42.684;23.260;2022-07-10T13:50:01;2.53;;;1.60;;
12792;SDS011;6460;42.684;23.260;2022-07-10T13:52:28;4.20;;;1.70;;
12792;SDS011;6460;42.684;23.260;2022-07-10T13:54:55;2.53;;;1.80;;
12792;SDS011;6460;42.684;23.260;2022-07-10T13:57:22;3.30;;;2.37;;
12792;SDS011;6460;42.684;23.260;2022-07-10T13:59:51;1.90;;;1.70;;
12792;SDS011;6460;42.684;23.260;2022-07-10T14:02:19;4.10;;;1.93;;
12792;SDS011;6460;42.684;23.260;2022-07-10T14:04:46;2.90;;;1.67;;
12792;SDS011;6460;42.684;23.260;2022-07-10T14:07:13;1.90;;;1.67;;
12792;SDS011;6460;42.684;23.260;2022-07-10T14:09:40;3.43;;;1.80;;
12792;SDS011;6460;42.684;23.260;2022-07-10T14:12:07;1.67;;;1.53;;
12792;SDS011;6460;42.684;23.260;2022-07-10T14:14:34;2.03;;;1.57;;
12792;SDS011;6460;42.684;23.260;2022-07-10T14:17:03;1.87;;;1.63;;
12792;SDS011;6460;42.684;23.260;2022-07-10T14:19:30;2.93;;;1.60;;
12792;SDS011;6460;42.684;23.260;2022-07-10T14:21:57;2.00;;;1.80;;
12792;SDS011;6460;42.684;23.260;2022-07-10T14:24:24;2.53;;;1.90;;
12792;SDS011;6460;42.684;23.260;2022-07-10T14:26:52;2.03;;;1.83;;
12792;SDS011;6460;42.684;23.260;2022-07-10T14:29:19;2.17;;;1.97;;
12792;SDS011;6460;42.684;23.260;2022-07-10T14:31:46;1.70;;;1.60;;
12792;SDS011;6460;42.684;23.260;2022-07-10T14:34:15;1.70;;;1.53;;
12792;SDS011;6460;42.684;23.260;2022-07-10T14:36:42;3.73;;;1.80;;
12792;SDS011;6460;42.684;23.260;2022-07-10T14:39:09;1.87;;;1.77;;
12792;SDS011;6460;42.684;23.260;2022-07-10T14:41:37;3.13;;;1.80;;
12792;SDS011;6460;42.684;23.260;2022-07-10T14:44:04;2.53;;;1.67;;
12792;SDS011;6460;42.684;23.260;2022-07-10T14:46:31;1.83;;;1.60;;
12792;SDS011;6460;42.684;23.260;2022-07-10T14:48:59;2.70;;;1.50;;
12792;SDS011;6460;42.684;23.260;2022-07-10T14:51:27;4.47;;;1.90;;
12792;SDS011;6460;42.684;23.260;2022-07-10T14:53:55;2.60;;;2.40;;
12792;SDS011;6460;42.684;23.260;2022-07-10T14:56:22;2.53;;;2.00;;
12792;SDS011;6460;42.684;23.260;2022-07-10T14:58:49;3.20;;;2.10;;
12792;SDS011;6460;42.684;23.260;2022-07-10T15:01:19;2.90;;;1.83;;
12792;SDS011;6460;42.684;23.260;2022-07-10T15:03:47;1.90;;;1.70;;
12792;SDS011;6460;42.684;23.260;2022-07-10T15:06:14;2.20;;;1.93;;
12792;SDS011;6460;42.684;23.260;2022-07-10T15:08:42;2.97;;;1.87;;
12792;SDS011;6460;42.684;23.260;2022-07-10T15:11:09;1.90;;;1.80;;
12792;SDS011;6460;42.684;23.260;2022-07-10T15:13:36;4.00;;;2.00;;
12792;SDS011;6460;42.684;23.260;2022-07-10T15:16:03;2.17;;;1.97;;
12792;SDS011;6460;42.684;23.260;2022-07-10T15:18:31;3.00;;;2.70;;
12792;SDS011;6460;42.684;23.260;2022-07-10T15:20:58;3.40;;;2.17;;
12792;SDS011;6460;42.684;23.260;2022-07-10T15:23:25;1.80;;;1.70;;
12792;SDS011;6460;42.684;23.260;2022-07-10T15:25:54;2.17;;;1.90;;
12792;SDS011;6460;42.684;23.260;2022-07-10T15:28:21;2.60;;;1.97;;
12792;SDS011;6460;42.684;23.260;2022-07-10T15:30:48;2.87;;;1.90;;
12792;SDS011;6460;42.684;23.260;2022-07-10T15:33:14;2.27;;;2.07;;
12792;SDS011;6460;42.684;23.260;2022-07-10T15:35:42;1.90;;;1.80;;
12792;SDS011;6460;42.684;23.260;2022-07-10T15:38:09;5.10;;;1.80;;
12792;SDS011;6460;42.684;23.260;2022-07-10T15:40:36;1.80;;;1.70;;
12792;SDS011;6460;42.684;23.260;2022-07-10T15:43:05;2.40;;;1.90;;
12792;SDS011;6460;42.684;23.260;2022-07-10T15:45:32;2.30;;;2.10;;
12792;SDS011;6460;42.684;23.260;2022-07-10T15:47:59;1.90;;;1.70;;
12792;SDS011;6460;42.684;23.260;2022-07-10T15:50:26;3.43;;;2.10;;
12792;SDS011;6460;42.684;23.260;2022-07-10T15:52:53;3.00;;;2.53;;
12792;SDS011;6460;42.684;23.260;2022-07-10T15:55:20;4.63;;;2.67;;
12792;SDS011;6460;42.684;23.260;2022-07-10T15:57:47;2.33;;;2.13;;
12792;SDS011;6460;42.684;23.260;2022-07-10T16:00:15;2.73;;;2.50;;
12792;SDS011;6460;42.684;23.260;2022-07-10T16:02:42;3.97;;;2.50;;
12792;SDS011;6460;42.684;23.260;2022-07-10T16:05:09;3.80;;;2.50;;
12792;SDS011;6460;42.684;23.260;2022-07-10T16:07:36;2.60;;;2.40;;
12792;SDS011;6460;42.684;23.260;2022-07-10T16:10:08;2.70;;;2.50;;
12792;SDS011;6460;42.684;23.260;2022-07-10T16:12:37;2.93;;;2.47;;
12792;SDS011;6460;42.684;23.260;2022-07-10T16:15:14;2.67;;;2.47;;
12792;SDS011;6460;42.684;23.260;2022-07-10T16:17:42;2.30;;;2.20;;
12792;SDS011;6460;42.684;23.260;2022-07-10T16:20:10;2.80;;;2.60;;
12792;SDS011;6460;42.684;23.260;2022-07-10T16:22:37;2.40;;;2.20;;
12792;SDS011;6460;42.684;23.260;2022-07-10T16:25:05;1.90;;;1.80;;
12792;SDS011;6460;42.684;23.260;2022-07-10T16:27:49;5.23;;;1.90;;
12792;SDS011;6460;42.684;23.260;2022-07-10T16:30:17;3.70;;;1.77;;
12792;SDS011;6460;42.684;23.260;2022-07-10T16:32:44;1.70;;;1.60;;
12792;SDS011;6460;42.684;23.260;2022-07-10T16:35:11;2.00;;;1.60;;
12792;SDS011;6460;42.684;23.260;2022-07-10T16:37:38;1.87;;;1.70;;
12792;SDS011;6460;42.684;23.260;2022-07-10T16:40:05;2.03;;;1.50;;
12792;SDS011;6460;42.684;23.260;2022-07-10T16:42:33;1.90;;;1.53;;
12792;SDS011;6460;42.684;23.260;2022-07-10T16:45:00;1.83;;;1.67;;
12792;SDS011;6460;42.684;23.260;2022-07-10T16:47:28;4.07;;;1.80;;
12792;SDS011;6460;42.684;23.260;2022-07-10T16:49:56;2.27;;;1.70;;
12792;SDS011;6460;42.684;23.260;2022-07-10T16:52:23;1.90;;;1.60;;